Time;durP1;ratioP1;P1;durP2;ratioP2;P2;SDS_P1;SDS_P2;PMS_P1;PMS_P2;Temp;Humidity;BMP_temperature;BMP_pressure;BME280_temperature;BME280_humidity;BME280_pressure;Samples;Min_cycle;Max_cycle;Signal;HPM_P1;HPM_P2
2021/07/21 00:00:21;;;;;;;15.23;10.80;;;;;;;19.17;69.16;102200.50;3581744;40;20228;-80
2021/07/21 00:02:46;;;;;;;14.20;11.00;;;;;;;19.01;69.10;102210.75;3580279;40;20238;-80
2021/07/21 00:05:14;;;;;;;13.40;10.93;;;;;;;19.09;69.03;102198.72;3572090;40;20257;-79
2021/07/21 00:07:40;;;;;;;13.73;10.33;;;;;;;19.11;69.01;102197.00;3566376;40;20250;-79
2021/07/21 00:10:07;;;;;;;14.57;10.67;;;;;;;19.09;68.86;102198.72;3574453;40;20256;-80
2021/07/21 00:15:18;;;;;;;14.63;10.33;;;;;;;18.93;69.43;102196.88;3577122;40;20868;-80
2021/07/21 00:17:45;;;;;;;16.35;10.82;;;;;;;18.96;69.32;102197.75;3581437;40;20273;-79
2021/07/21 00:20:11;;;;;;;15.90;12.10;;;;;;;19.11;69.26;102191.81;3581657;40;20257;-80
2021/07/21 00:22:39;;;;;;;11.10;9.83;;;;;;;18.87;69.53;102189.91;3580768;40;20300;-79
2021/07/21 00:25:07;;;;;;;15.07;10.97;;;;;;;18.77;70.40;102182.03;3572360;40;20235;-80
2021/07/21 00:27:34;;;;;;;15.00;11.80;;;;;;;18.80;70.18;102180.31;3572225;40;20335;-80
2021/07/21 00:30:00;;;;;;;12.83;11.13;;;;;;;18.74;70.37;102180.28;3572035;40;20248;-79
2021/07/21 00:32:25;;;;;;;13.63;10.70;;;;;;;18.66;70.34;102188.88;3562458;40;20234;-79
2021/07/21 00:34:50;;;;;;;16.10;12.17;;;;;;;18.81;70.10;102186.41;3572574;40;20644;-79
2021/07/21 00:37:16;;;;;;;15.43;11.93;;;;;;;18.88;70.00;102189.03;3571221;40;20271;-79
2021/07/21 00:39:41;;;;;;;15.00;12.10;;;;;;;18.95;69.49;102185.66;3562379;40;20284;-79
2021/07/21 00:42:06;;;;;;;14.53;12.00;;;;;;;18.74;70.64;102188.06;3571388;40;20786;-79
2021/07/21 00:44:31;;;;;;;15.30;10.43;;;;;;;18.58;71.07;102183.63;3572542;40;20238;-80
2021/07/21 00:46:58;;;;;;;13.23;10.70;;;;;;;18.57;71.14;102179.28;3571765;40;20221;-79
2021/07/21 00:49:24;;;;;;;12.87;9.60;;;;;;;18.51;71.17;102174.03;3582129;40;20233;-80
2021/07/21 00:51:53;;;;;;;14.30;11.30;;;;;;;18.58;71.07;102177.56;3572799;40;20221;-79
2021/07/21 00:54:20;;;;;;;15.57;11.40;;;;;;;18.72;70.95;102181.13;3577424;40;20240;-80
2021/07/21 00:56:46;;;;;;;14.03;11.27;;;;;;;18.96;70.31;102173.50;3571774;40;20719;-80
2021/07/21 00:59:11;;;;;;;12.77;10.97;;;;;;;18.79;69.83;102169.97;3571954;40;20238;-79
2021/07/21 01:01:36;;;;;;;13.53;10.10;;;;;;;18.70;70.57;102175.94;3572005;40;20222;-81
2021/07/21 01:04:03;;;;;;;15.70;11.83;;;;;;;18.75;70.40;102168.19;3572300;40;20243;-79
2021/07/21 01:06:29;;;;;;;13.17;9.67;;;;;;;18.63;70.94;102179.34;3571764;40;20245;-80
2021/07/21 01:08:54;;;;;;;16.13;11.40;;;;;;;18.79;70.75;102181.19;3571756;40;20230;-80
2021/07/21 01:11:29;;;;;;;12.73;11.10;;;;;;;18.72;70.62;102184.63;3571924;40;20848;-78
2021/07/21 01:14:14;;;;;;;16.07;11.87;;;;;;;19.11;69.54;102184.03;3572388;40;20250;-79
2021/07/21 01:16:45;;;;;;;14.33;11.47;;;;;;;19.04;69.93;102174.44;3571473;40;20315;-79
2021/07/21 01:19:20;;;;;;;14.20;11.43;;;;;;;18.80;70.23;102175.13;3563917;40;20719;-80
2021/07/21 01:21:52;;;;;;;12.30;9.20;;;;;;;18.70;70.44;102186.31;3581631;40;20795;-80
2021/07/21 01:24:48;;;;;;;14.53;11.30;;;;;;;18.80;70.41;102189.84;3571702;40;20233;-81
2021/07/21 01:27:38;;;;;;;13.43;10.93;;;;;;;18.76;70.56;102190.69;3581522;40;20606;-79
2021/07/21 01:30:26;;;;;;;16.87;11.50;;;;;;;18.80;69.95;102182.91;3581680;40;20222;-80
2021/07/21 01:33:06;;;;;;;14.23;12.10;;;;;;;18.87;70.46;102189.03;3579704;40;20237;-80
2021/07/21 01:35:37;;;;;;;14.33;10.57;;;;;;;18.77;70.65;102192.41;3570545;40;20389;-80
2021/07/21 01:38:07;;;;;;;14.67;12.07;;;;;;;18.92;70.54;102193.41;3578752;40;20226;-79
2021/07/21 01:40:40;;;;;;;14.85;12.13;;;;;;;18.87;70.64;102194.22;3572241;40;20248;-79
2021/07/21 01:43:07;;;;;;;14.07;10.80;;;;;;;18.76;71.08;102198.47;3581380;40;20250;-80
2021/07/21 01:45:34;;;;;;;16.50;11.93;;;;;;;18.96;70.88;102200.38;3574546;40;20226;-80
2021/07/21 01:48:00;;;;;;;15.77;12.87;;;;;;;18.90;71.73;102207.22;3570363;40;20280;-79
2021/07/21 01:50:28;;;;;;;15.87;12.20;;;;;;;18.94;71.88;102201.22;3570630;40;20229;-78
2021/07/21 01:52:54;;;;;;;16.00;12.30;;;;;;;18.79;72.10;102188.97;3573478;40;20246;-78
2021/07/21 01:55:21;;;;;;;14.17;11.67;;;;;;;18.76;73.01;102201.94;3572427;40;20237;-78
2021/07/21 01:57:47;;;;;;;14.20;11.53;;;;;;;18.59;73.02;102195.75;3581198;40;20233;-78
2021/07/21 02:00:13;;;;;;;14.33;12.37;;;;;;;18.62;73.25;102197.50;3563277;40;20227;-78
2021/07/21 02:02:43;;;;;;;15.63;11.77;;;;;;;18.61;73.16;102199.22;3577704;40;20257;-78
2021/07/21 02:05:10;;;;;;;14.90;12.00;;;;;;;18.38;74.10;102194.69;3571125;40;20575;-78
2021/07/21 02:07:37;;;;;;;11.77;9.48;;;;;;;18.26;74.86;102199.72;3570651;40;20229;-78
2021/07/21 02:10:05;;;;;;;16.50;12.27;;;;;;;18.30;74.84;102189.41;3570778;40;20308;-78
2021/07/21 02:12:34;;;;;;;14.77;11.07;;;;;;;18.36;73.99;102193.78;3562256;40;20641;-78
2021/07/21 02:15:00;;;;;;;14.17;10.33;;;;;;;18.38;73.82;102186.91;3571062;40;20246;-79
2021/07/21 02:17:27;;;;;;;15.27;11.33;;;;;;;18.48;73.30;102186.13;3561747;40;20227;-78
2021/07/21 02:19:53;;;;;;;13.83;10.37;;;;;;;18.34;73.51;102183.41;3570642;40;20238;-78
2021/07/21 02:22:21;;;;;;;12.50;9.30;;;;;;;18.21;74.26;102178.06;3568992;40;20276;-78
2021/07/21 02:24:47;;;;;;;12.10;9.87;;;;;;;18.06;74.52;102183.09;3571820;40;20234;-78
2021/07/21 02:27:13;;;;;;;10.33;8.77;;;;;;;18.12;74.59;102178.84;3580970;40;20229;-78
2021/07/21 02:29:39;;;;;;;13.37;10.87;;;;;;;18.37;74.35;102183.44;3571872;40;20229;-79
2021/07/21 02:32:20;;;;;;;16.30;12.30;;;;;;;18.84;72.63;102184.69;3580547;40;20237;-79
2021/07/21 02:34:46;;;;;;;17.83;12.30;;;;;;;18.47;73.31;102184.41;3570881;40;20307;-78
2021/07/21 02:37:16;;;;;;;15.63;11.67;;;;;;;18.50;73.26;102179.22;3561778;40;20523;-78
2021/07/21 02:39:47;;;;;;;11.93;8.97;;;;;;;18.20;74.61;102186.69;3571814;40;20514;-79
2021/07/21 02:42:14;;;;;;;13.10;10.17;;;;;;;18.13;74.97;102182.28;3563118;40;20230;-79
2021/07/21 02:44:42;;;;;;;15.13;12.27;;;;;;;18.21;74.97;102185.84;3563316;40;20242;-78
2021/07/21 02:47:08;;;;;;;11.77;8.87;;;;;;;18.13;75.22;102188.34;3563457;40;20250;-79
2021/07/21 02:49:33;;;;;;;17.07;12.93;;;;;;;18.47;74.39;102185.25;3572205;40;20743;-78
2021/07/21 02:52:27;;;;;;;17.90;13.47;;;;;;;18.54;73.63;102181.88;3572769;40;20547;-78
2021/07/21 02:55:22;;;;;;;16.57;12.67;;;;;;;18.68;73.21;102182.84;3572398;40;20246;-78
2021/07/21 02:57:55;;;;;;;16.73;13.73;;;;;;;18.76;72.52;102181.19;3581907;40;20233;-78
2021/07/21 03:00:26;;;;;;;15.67;12.03;;;;;;;18.76;72.48;102181.19;3581494;40;20230;-79
2021/07/21 03:02:52;;;;;;;16.27;12.70;;;;;;;18.88;71.86;102176.06;3566003;40;20289;-78
2021/07/21 03:05:21;;;;;;;16.17;13.23;;;;;;;18.80;71.91;102179.47;3571592;40;20245;-79
2021/07/21 03:07:51;;;;;;;15.20;11.83;;;;;;;18.50;72.69;102192.19;3562386;40;20245;-78
2021/07/21 03:10:16;;;;;;;14.67;10.57;;;;;;;18.37;73.61;102185.19;3571418;40;20223;-78
2021/07/21 03:13:06;;;;;;;16.47;12.73;;;;;;;18.54;73.23;102183.56;3572080;40;20302;-78
2021/07/21 03:15:34;;;;;;;16.47;12.03;;;;;;;18.43;72.85;102177.44;3567847;40;20242;-78
2021/07/21 03:18:01;;;;;;;18.10;13.63;;;;;;;18.44;73.78;102179.16;3571671;40;20234;-78
2021/07/21 03:20:27;;;;;;;14.97;12.00;;;;;;;18.42;73.50;102176.56;3571612;40;20263;-78
2021/07/21 03:22:55;;;;;;;15.57;11.60;;;;;;;18.27;73.92;102175.50;3572381;40;20227;-78
2021/07/21 03:25:22;;;;;;;14.37;12.27;;;;;;;18.58;72.97;102174.97;3572346;40;20218;-77
2021/07/21 03:27:50;;;;;;;17.60;13.20;;;;;;;18.59;72.72;102171.50;3571482;40;20266;-79
2021/07/21 03:30:16;;;;;;;14.20;11.90;;;;;;;18.29;73.47;102176.41;3562153;40;20620;-78
2021/07/21 03:32:43;;;;;;;17.50;12.10;;;;;;;18.31;74.16;102179.88;3572131;40;20358;-79
2021/07/21 03:35:10;;;;;;;16.83;12.23;;;;;;;18.16;74.37;102185.81;3562591;40;20461;-79
2021/07/21 03:37:39;;;;;;;16.77;12.82;;;;;;;18.28;74.19;102182.47;3571491;40;20635;-79
2021/07/21 03:40:05;;;;;;;15.93;12.43;;;;;;;18.36;73.74;102184.28;3574714;40;20229;-79
2021/07/21 03:42:33;;;;;;;15.80;11.30;;;;;;;18.43;73.07;102186.06;3583158;40;20751;-79
2021/07/21 03:45:00;;;;;;;15.80;12.23;;;;;;;18.55;73.05;102186.19;3580860;40;20225;-79
2021/07/21 03:47:27;;;;;;;16.33;11.90;;;;;;;18.54;72.84;102187.06;3580400;40;20234;-78
2021/07/21 03:49:53;;;;;;;12.80;10.10;;;;;;;18.19;73.72;102193.59;3579549;40;20326;-78
2021/07/21 03:52:20;;;;;;;16.50;12.37;;;;;;;18.28;73.64;102185.91;3578871;40;20293;-78
2021/07/21 03:54:47;;;;;;;13.77;10.20;;;;;;;18.13;73.98;102185.75;3562028;40;20642;-78
2021/07/21 03:57:16;;;;;;;14.90;12.23;;;;;;;18.28;73.92;102188.50;3562130;40;20601;-79
2021/07/21 03:59:42;;;;;;;19.03;11.47;;;;;;;18.42;72.85;102189.53;3571425;40;20229;-78
2021/07/21 04:02:09;;;;;;;14.80;10.73;;;;;;;18.19;73.37;102191.00;3572215;40;20222;-78
2021/07/21 04:04:38;;;;;;;13.87;10.97;;;;;;;18.31;72.99;102195.44;3573592;40;20245;-78
2021/07/21 04:07:04;;;;;;;15.63;11.30;;;;;;;18.15;73.82;102190.97;3572712;40;20237;-78
2021/07/21 04:09:32;;;;;;;16.10;12.17;;;;;;;18.25;73.18;102201.47;3581365;40;20237;-79
2021/07/21 04:12:00;;;;;;;13.23;10.20;;;;;;;18.13;73.35;102197.84;3581221;40;20266;-77
2021/07/21 04:14:25;;;;;;;12.37;10.67;;;;;;;18.00;74.05;102193.41;3562803;40;20250;-78
2021/07/21 04:16:52;;;;;;;18.60;11.33;;;;;;;18.01;74.27;102205.50;3571467;40;20284;-79
2021/07/21 04:19:19;;;;;;;14.97;11.40;;;;;;;18.26;73.24;102197.13;3571641;40;20230;-79
2021/07/21 04:21:47;;;;;;;13.27;11.10;;;;;;;18.40;72.66;102201.63;3571267;40;20931;-78
2021/07/21 04:24:13;;;;;;;14.33;11.10;;;;;;;18.34;72.60;102201.56;3571817;40;20238;-78
2021/07/21 04:26:40;;;;;;;12.60;9.90;;;;;;;18.16;73.54;102206.56;3571450;40;20239;-79
2021/07/21 04:29:09;;;;;;;12.53;9.67;;;;;;;18.19;73.54;102200.53;3571629;40;20282;-79
2021/07/21 04:31:37;;;;;;;12.93;10.17;;;;;;;18.26;73.30;102210.09;3571089;40;20223;-78
2021/07/21 04:34:03;;;;;;;15.77;11.97;;;;;;;18.12;73.41;102201.31;3571097;40;20637;-78
2021/07/21 04:36:29;;;;;;;13.30;10.43;;;;;;;18.11;73.41;102202.16;3561682;40;20231;-78
2021/07/21 04:38:54;;;;;;;13.97;10.63;;;;;;;18.26;73.37;102207.50;3561564;40;20604;-79
2021/07/21 04:41:22;;;;;;;16.23;11.27;;;;;;;18.16;73.75;102210.84;3578262;40;20222;-78
2021/07/21 04:43:48;;;;;;;14.67;9.70;;;;;;;18.13;74.04;102216.88;3564698;40;20638;-78
2021/07/21 04:46:15;;;;;;;12.07;9.63;;;;;;;18.23;73.53;102218.72;3573167;40;20236;-78
2021/07/21 04:48:42;;;;;;;11.80;8.87;;;;;;;18.12;73.95;102215.16;3574430;40;20230;-79
2021/07/21 04:51:10;;;;;;;12.60;10.10;;;;;;;18.28;73.33;102211.84;3573001;40;20226;-78
2021/07/21 04:53:35;;;;;;;13.33;10.53;;;;;;;18.52;73.25;102213.84;3570419;40;20239;-78
2021/07/21 04:56:01;;;;;;;13.97;10.30;;;;;;;18.96;70.82;102215.06;3581682;40;20233;-78
2021/07/21 04:58:26;;;;;;;11.40;9.80;;;;;;;18.47;72.34;102212.94;3580516;40;20221;-78
2021/07/21 05:00:53;;;;;;;13.67;10.57;;;;;;;18.54;72.11;102223.38;3571209;40;20237;-78
2021/07/21 05:03:19;;;;;;;12.77;11.17;;;;;;;18.97;71.05;102222.03;3579634;40;20567;-78
2021/07/21 05:05:44;;;;;;;14.23;11.67;;;;;;;18.81;71.55;102227.94;3580767;40;20226;-78
2021/07/21 05:08:09;;;;;;;14.10;10.10;;;;;;;18.58;72.46;102234.66;3571338;40;20320;-79
2021/07/21 05:10:35;;;;;;;13.73;9.77;;;;;;;18.46;72.76;102235.41;3575564;40;20230;-78
2021/07/21 05:13:01;;;;;;;17.03;12.83;;;;;;;18.45;73.43;102241.47;3571076;40;20231;-78
2021/07/21 05:15:28;;;;;;;13.67;11.17;;;;;;;18.66;72.89;102245.97;3562222;40;20246;-78
2021/07/21 05:17:53;;;;;;;16.37;12.90;;;;;;;18.55;72.50;102240.69;3571099;40;20507;-78
2021/07/21 05:20:19;;;;;;;16.73;12.10;;;;;;;18.76;72.14;102246.09;3561495;40;20538;-78
2021/07/21 05:22:47;;;;;;;16.10;12.63;;;;;;;18.67;72.54;102247.72;3571254;40;20257;-78
2021/07/21 05:25:17;;;;;;;15.77;11.17;;;;;;;18.63;72.62;102238.16;3570214;40;20248;-77
2021/07/21 05:27:44;;;;;;;15.70;12.40;;;;;;;18.65;73.16;102241.66;3570403;40;20226;-77
2021/07/21 05:30:11;;;;;;;14.60;11.57;;;;;;;18.44;73.50;102244.91;3560902;40;20613;-77
2021/07/21 05:32:37;;;;;;;13.37;9.83;;;;;;;18.41;73.49;102244.00;3570158;40;20255;-77
2021/07/21 05:35:03;;;;;;;14.30;12.00;;;;;;;18.44;73.71;102247.50;3570557;40;20321;-78
2021/07/21 05:37:29;;;;;;;15.87;11.67;;;;;;;18.51;73.57;102248.44;3570505;40;20225;-78
2021/07/21 05:39:54;;;;;;;20.13;13.30;;;;;;;18.93;71.60;102254.00;3561234;40;20222;-78
2021/07/21 05:42:19;;;;;;;17.70;14.13;;;;;;;18.87;71.99;102253.94;3572629;40;20242;-78
2021/07/21 05:44:44;;;;;;;21.57;14.13;;;;;;;19.11;70.51;102254.16;3568790;40;20227;-78
2021/07/21 05:47:10;;;;;;;18.77;13.10;;;;;;;18.84;71.58;102261.72;3569180;40;20226;-77
2021/07/21 05:49:35;;;;;;;17.90;12.70;;;;;;;18.92;71.31;102258.31;3570587;40;20637;-79
2021/07/21 05:52:01;;;;;;;13.67;12.17;;;;;;;18.82;72.04;102260.81;3570716;40;20242;-77
2021/07/21 05:54:27;;;;;;;16.37;13.40;;;;;;;18.88;71.15;102260.88;3574944;40;20613;-77
2021/07/21 05:56:53;;;;;;;17.53;13.10;;;;;;;18.83;71.44;102258.25;3568777;40;20222;-77
2021/07/21 05:59:21;;;;;;;16.63;12.97;;;;;;;19.01;70.99;102262.69;3568747;40;20230;-77
2021/07/21 06:01:46;;;;;;;17.33;12.63;;;;;;;18.92;71.04;102271.31;3570922;40;20761;-79
2021/07/21 06:04:11;;;;;;;18.53;13.70;;;;;;;18.93;71.78;102272.19;3569036;40;20253;-77
2021/07/21 06:06:37;;;;;;;17.93;14.17;;;;;;;19.00;70.72;102267.03;3569288;40;20914;-80
2021/07/21 06:09:04;;;;;;;17.43;13.47;;;;;;;18.95;71.14;102273.06;3559384;40;20234;-77
2021/07/21 06:11:30;;;;;;;18.73;14.73;;;;;;;19.02;70.75;102274.84;3570910;40;20723;-80
2021/07/21 06:13:59;;;;;;;17.00;12.63;;;;;;;18.82;71.14;102269.50;3569280;40;20353;-78
2021/07/21 06:16:24;;;;;;;18.53;14.00;;;;;;;18.99;70.87;102267.91;3580872;40;20210;-79
2021/07/21 06:18:50;;;;;;;19.03;13.20;;;;;;;19.23;69.87;102272.44;3580346;40;20236;-79
2021/07/21 06:21:15;;;;;;;17.40;12.90;;;;;;;19.13;70.27;102273.19;3583678;40;20222;-78
2021/07/21 06:23:40;;;;;;;13.50;11.40;;;;;;;19.00;70.72;102274.84;3590671;40;20249;-79
2021/07/21 06:26:06;;;;;;;15.33;12.10;;;;;;;18.90;71.03;102283.41;3590991;40;20261;-79
2021/07/21 06:28:31;;;;;;;17.17;13.13;;;;;;;18.96;71.59;102274.78;3589640;40;20661;-77
2021/07/21 06:30:56;;;;;;;21.07;13.97;;;;;;;19.02;71.36;102275.69;3585882;40;20242;-80
2021/07/21 06:33:22;;;;;;;19.17;14.00;;;;;;;19.24;70.52;102282.84;3571188;40;20245;-79
2021/07/21 06:35:48;;;;;;;16.93;12.43;;;;;;;19.25;70.34;102284.56;3571543;40;20221;-79
2021/07/21 06:38:14;;;;;;;17.07;12.87;;;;;;;19.43;69.46;102287.31;3580386;40;20238;-80
2021/07/21 06:40:39;;;;;;;17.63;13.50;;;;;;;19.38;68.86;102294.19;3581690;40;20210;-79
2021/07/21 06:43:05;;;;;;;14.67;12.17;;;;;;;19.12;69.97;102289.66;3571421;40;20257;-79
2021/07/21 06:45:30;;;;;;;18.03;13.23;;;;;;;19.12;70.41;102295.69;3580812;40;20275;-79
2021/07/21 06:47:56;;;;;;;16.13;13.60;;;;;;;19.10;70.36;102297.41;3571151;40;20229;-79
2021/07/21 06:50:23;;;;;;;16.20;12.37;;;;;;;19.15;69.99;102297.44;3581361;40;20230;-79
2021/07/21 06:52:48;;;;;;;16.43;13.03;;;;;;;19.17;70.47;102294.00;3579851;40;20253;-79
2021/07/21 06:55:13;;;;;;;15.03;11.93;;;;;;;19.04;70.85;102301.69;3571701;40;20603;-79
2021/07/21 06:57:39;;;;;;;15.20;11.90;;;;;;;18.91;71.77;102311.09;3570995;40;20230;-79
2021/07/21 07:00:05;;;;;;;16.83;12.77;;;;;;;19.09;71.38;102315.59;3580532;40;20661;-79
2021/07/21 07:02:31;;;;;;;14.47;12.47;;;;;;;19.12;70.69;102316.47;3580803;40;20242;-79
2021/07/21 07:04:56;;;;;;;13.73;10.60;;;;;;;19.09;70.85;102323.38;3579838;40;20607;-79
2021/07/21 07:07:21;;;;;;;14.50;11.23;;;;;;;18.94;71.94;102315.47;3579470;40;20235;-79
2021/07/21 07:09:47;;;;;;;14.53;11.63;;;;;;;19.35;70.39;102320.16;3580208;40;20280;-78
2021/07/21 07:12:12;;;;;;;16.50;13.20;;;;;;;19.36;70.41;102314.13;3570678;40;20229;-79
2021/07/21 07:14:38;;;;;;;17.57;13.43;;;;;;;19.43;69.81;102320.22;3580334;40;20248;-78
2021/07/21 07:17:03;;;;;;;18.30;13.33;;;;;;;19.35;70.68;102316.69;3580134;40;20233;-79
2021/07/21 07:19:28;;;;;;;15.70;10.40;;;;;;;19.19;70.86;102314.78;3570364;40;20222;-79
2021/07/21 07:21:54;;;;;;;13.47;10.87;;;;;;;19.03;71.22;102316.38;3580052;40;20228;-79
2021/07/21 07:24:19;;;;;;;15.17;11.17;;;;;;;19.19;71.90;102312.19;3579477;40;20334;-78
2021/07/21 07:26:44;;;;;;;14.93;10.80;;;;;;;19.24;71.63;102308.81;3581765;40;20252;-79
2021/07/21 07:29:10;;;;;;;15.43;11.73;;;;;;;19.48;70.52;102313.34;3581630;40;20234;-79
2021/07/21 07:31:35;;;;;;;14.23;11.37;;;;;;;19.63;69.60;102313.41;3581777;40;20229;-78
2021/07/21 07:34:00;;;;;;;13.77;11.03;;;;;;;19.66;69.97;102321.25;3582378;40;20331;-79
2021/07/21 07:36:25;;;;;;;14.37;11.80;;;;;;;19.84;70.31;102313.53;3589772;40;20232;-79
2021/07/21 07:38:51;;;;;;;16.07;11.63;;;;;;;20.10;67.99;102318.03;3587265;40;20894;-79
2021/07/21 07:41:16;;;;;;;13.87;10.57;;;;;;;20.38;67.01;102317.28;3583542;40;20221;-79
2021/07/21 07:43:42;;;;;;;13.47;9.90;;;;;;;20.35;67.49;102317.25;3570753;40;20494;-79
2021/07/21 07:46:11;;;;;;;12.87;9.37;;;;;;;20.19;68.21;102317.19;3571558;40;20233;-79
2021/07/21 07:48:37;;;;;;;14.07;10.83;;;;;;;20.31;66.70;102322.47;3574379;40;20221;-79
2021/07/21 07:51:02;;;;;;;15.97;11.60;;;;;;;20.39;66.27;102324.22;3582373;40;20213;-79
2021/07/21 07:53:27;;;;;;;14.60;11.77;;;;;;;20.34;67.35;102314.63;3575814;40;20262;-79
2021/07/21 07:55:53;;;;;;;14.17;11.17;;;;;;;20.54;66.97;102319.03;3573499;40;20237;-78
2021/07/21 07:58:18;;;;;;;15.10;11.57;;;;;;;20.63;65.78;102321.66;3583301;40;20521;-79
2021/07/21 08:00:44;;;;;;;13.63;11.17;;;;;;;20.60;65.18;102316.44;3591472;40;20634;-79
2021/07/21 08:03:09;;;;;;;13.13;11.07;;;;;;;20.73;65.25;102310.41;3591781;40;20249;-79
2021/07/21 08:05:37;;;;;;;13.40;10.47;;;;;;;20.84;64.50;102313.91;3590687;40;20234;-79
2021/07/21 08:08:02;;;;;;;13.37;11.13;;;;;;;20.88;65.46;102310.44;3582036;40;20236;-79
2021/07/21 08:10:29;;;;;;;15.30;11.60;;;;;;;20.98;65.23;102314.81;3591613;40;20277;-79
2021/07/21 08:12:54;;;;;;;14.37;10.60;;;;;;;20.94;64.52;102307.84;3591712;40;20251;-78
2021/07/21 08:15:19;;;;;;;14.30;12.20;;;;;;;21.21;63.08;102312.19;3592237;40;20221;-79
2021/07/21 08:17:45;;;;;;;12.53;10.90;;;;;;;21.16;63.54;102312.22;3581066;40;20316;-78
2021/07/21 08:20:11;;;;;;;14.97;10.57;;;;;;;21.08;64.04;102318.28;3591537;40;20225;-79
2021/07/21 08:22:40;;;;;;;15.43;11.67;;;;;;;21.35;63.01;102313.06;3591693;40;20249;-79
2021/07/21 08:25:08;;;;;;;12.60;10.37;;;;;;;21.31;62.88;102308.69;3588401;40;20232;-79
2021/07/21 08:27:33;;;;;;;16.17;11.47;;;;;;;21.26;62.64;102306.13;3587368;40;20225;-79
2021/07/21 08:29:59;;;;;;;15.80;11.03;;;;;;;21.13;63.54;102308.72;3591619;40;20228;-77
2021/07/21 08:32:24;;;;;;;15.53;11.80;;;;;;;21.20;62.57;102307.84;3592193;40;20263;-79
2021/07/21 08:34:49;;;;;;;14.87;11.50;;;;;;;21.33;62.32;102310.44;3592171;40;20576;-79
2021/07/21 08:37:14;;;;;;;18.63;12.57;;;;;;;21.10;63.70;102314.78;3583862;40;20226;-79
2021/07/21 08:39:40;;;;;;;12.63;10.47;;;;;;;21.14;62.95;102311.31;3581649;40;20233;-79
2021/07/21 08:42:06;;;;;;;15.90;11.57;;;;;;;21.21;63.47;102314.81;3581466;40;20593;-79
2021/07/21 08:44:31;;;;;;;14.73;11.07;;;;;;;21.16;63.33;102308.72;3582334;40;20222;-79
2021/07/21 08:46:57;;;;;;;14.03;11.10;;;;;;;21.05;63.58;102313.09;3573475;40;20233;-78
2021/07/21 08:49:22;;;;;;;15.97;11.70;;;;;;;21.27;61.96;102313.06;3581595;40;20218;-79
2021/07/21 08:51:48;;;;;;;14.63;10.83;;;;;;;21.09;62.55;102310.47;3581633;40;20229;-79
2021/07/21 08:54:15;;;;;;;15.00;11.80;;;;;;;21.32;62.02;102310.44;3572024;40;20253;-79
2021/07/21 08:56:41;;;;;;;12.80;10.98;;;;;;;21.39;61.48;102317.38;3581820;40;20238;-79
2021/07/21 08:59:07;;;;;;;17.60;10.63;;;;;;;21.32;61.55;102313.91;3571950;40;20237;-79
2021/07/21 09:01:33;;;;;;;13.33;10.20;;;;;;;21.25;61.28;102313.94;3572475;40;20226;-79
2021/07/21 09:04:02;;;;;;;12.77;10.40;;;;;;;21.12;61.36;102313.06;3583383;40;20245;-79
2021/07/21 09:06:28;;;;;;;12.23;9.50;;;;;;;21.05;61.83;102323.50;3584306;40;20221;-78
2021/07/21 09:08:54;;;;;;;14.37;9.87;;;;;;;21.06;61.75;102320.03;3581198;40;20221;-77
2021/07/21 09:11:20;;;;;;;13.83;11.30;;;;;;;21.12;62.19;102322.63;3580833;40;20231;-77
2021/07/21 09:13:45;;;;;;;15.57;12.17;;;;;;;21.21;62.25;102331.31;3581254;40;20597;-77
2021/07/21 09:16:11;;;;;;;16.40;12.07;;;;;;;21.12;63.87;102338.25;3575200;40;20226;-78
2021/07/21 09:18:50;;;;;;;14.50;11.90;;;;;;;21.00;65.01;102333.06;3570294;40;20531;-77
2021/07/21 09:21:18;;;;;;;20.43;12.17;;;;;;;20.76;65.44;102341.66;3570619;40;20225;-78
2021/07/21 09:23:46;;;;;;;15.77;12.60;;;;;;;20.43;68.07;102336.38;3579993;40;20241;-77
2021/07/21 09:26:27;;;;;;;13.30;11.87;;;;;;;20.23;69.35;102339.78;3580906;40;20221;-78
2021/07/21 09:28:52;;;;;;;12.60;9.97;;;;;;;19.94;70.57;102342.19;3570589;40;20225;-77
2021/07/21 09:31:29;;;;;;;17.07;12.27;;;;;;;19.92;70.82;102346.53;3570802;40;20315;-76
2021/07/21 09:33:55;;;;;;;13.33;10.93;;;;;;;19.98;70.72;102346.56;3571443;40;20290;-77
2021/07/21 09:36:20;;;;;;;15.73;12.17;;;;;;;20.13;70.10;102348.41;3580730;40;20607;-76
2021/07/21 09:38:46;;;;;;;14.60;11.60;;;;;;;20.34;70.51;102348.47;3580285;40;20595;-77
2021/07/21 09:41:13;;;;;;;12.33;9.47;;;;;;;20.45;68.21;102347.66;3572453;40;20241;-77
2021/07/21 09:43:39;;;;;;;12.53;9.27;;;;;;;20.65;67.01;102355.53;3570166;40;20247;-77
2021/07/21 09:46:10;;;;;;;11.00;9.13;;;;;;;20.83;65.04;102355.56;3579978;40;20264;-77
2021/07/21 09:48:49;;;;;;;11.10;8.93;;;;;;;20.86;64.42;102359.03;3570263;40;20613;-77
2021/07/21 09:51:35;;;;;;;8.73;7.77;;;;;;;20.58;65.23;102365.03;3571354;40;20285;-77
2021/07/21 09:54:20;;;;;;;10.05;7.60;;;;;;;20.71;63.98;102369.44;3575807;40;20264;-78
2021/07/21 09:56:50;;;;;;;8.33;6.60;;;;;;;20.71;62.61;102365.94;3590963;40;20217;-78
2021/07/21 09:59:24;;;;;;;9.57;6.83;;;;;;;20.70;61.83;102365.09;3591191;40;20243;-78
2021/07/21 10:01:50;;;;;;;8.90;6.53;;;;;;;20.53;63.37;102366.78;3581370;40;20218;-78
2021/07/21 10:04:39;;;;;;;7.87;5.97;;;;;;;20.68;62.61;102366.81;3591274;40;20244;-79
2021/07/21 10:09:50;;;;;;;9.13;6.60;;;;;;;20.79;63.09;102356.41;3590899;40;20237;-78
2021/07/21 10:12:17;;;;;;;8.67;7.33;;;;;;;20.90;62.56;102354.72;3590145;40;20263;-79
2021/07/21 10:15:03;;;;;;;9.17;7.87;;;;;;;20.91;62.98;102354.72;3590705;40;20245;-79
2021/07/21 10:17:28;;;;;;;10.27;8.07;;;;;;;20.91;63.40;102357.34;3581276;40;20245;-78
2021/07/21 10:19:54;;;;;;;9.93;7.87;;;;;;;21.10;62.70;102353.03;3590608;40;20221;-79
2021/07/21 10:22:20;;;;;;;11.87;9.13;;;;;;;21.22;62.64;102360.84;3579865;40;20248;-79
2021/07/21 10:24:45;;;;;;;9.80;7.33;;;;;;;21.35;61.60;102358.25;3590066;40;20221;-80
2021/07/21 10:27:11;;;;;;;7.70;6.60;;;;;;;21.34;61.39;102359.13;3580602;40;20290;-77
2021/07/21 10:29:36;;;;;;;7.23;6.23;;;;;;;21.34;61.76;102364.34;3580756;40;20500;-78
2021/07/21 10:32:02;;;;;;;8.03;6.27;;;;;;;21.44;60.79;102366.06;3583409;40;20230;-76
2021/07/21 10:34:27;;;;;;;7.20;6.50;;;;;;;21.34;62.46;102366.94;3578282;40;20311;-78
2021/07/21 10:36:53;;;;;;;8.83;7.40;;;;;;;21.60;59.75;102361.72;3570974;40;20261;-78
2021/07/21 10:39:24;;;;;;;8.63;7.23;;;;;;;21.48;60.76;102357.38;3581237;40;20217;-78
2021/07/21 10:41:50;;;;;;;8.80;7.87;;;;;;;21.50;59.99;102362.56;3581633;40;20237;-78
2021/07/21 10:44:18;;;;;;;9.40;7.40;;;;;;;21.60;58.78;102348.66;3579990;40;20273;-77
2021/07/21 10:46:51;;;;;;;7.83;7.03;;;;;;;21.40;60.13;102359.09;3571548;40;20222;-78
2021/07/21 10:49:36;;;;;;;11.00;8.93;;;;;;;21.36;59.93;102357.38;3580842;40;20481;-78
2021/07/21 11:00:10;;;;;;;10.27;8.53;;;;;;;21.18;59.52;102356.47;3590526;40;20235;-78
2021/07/21 11:02:35;;;;;;;11.63;9.23;;;;;;;21.16;60.19;102351.31;3591906;40;20278;-78
2021/07/21 11:05:00;;;;;;;10.87;8.87;;;;;;;21.12;60.95;102353.88;3590991;40;20233;-78
2021/07/21 11:07:52;;;;;;;9.30;8.13;;;;;;;21.28;60.08;102351.28;3587740;40;20278;-77
2021/07/21 11:10:41;;;;;;;7.80;6.67;;;;;;;21.28;60.04;102350.44;3583981;40;20221;-78
2021/07/21 11:13:09;;;;;;;7.03;6.03;;;;;;;21.11;60.51;102349.56;3586925;40;20257;-78
2021/07/21 11:15:43;;;;;;;7.90;6.07;;;;;;;20.93;61.06;102354.75;3572447;40;20230;-79
2021/07/21 11:18:23;;;;;;;7.88;5.93;;;;;;;21.20;61.27;102342.63;3581654;40;20281;-78
2021/07/21 11:20:59;;;;;;;6.60;5.80;;;;;;;21.39;60.66;102344.34;3581876;40;20225;-78
2021/07/21 11:23:41;;;;;;;8.33;6.00;;;;;;;21.42;60.38;102338.25;3582031;40;20708;-78
2021/07/21 11:26:46;;;;;;;7.27;5.87;;;;;;;21.56;59.64;102339.97;3582832;40;20230;-78
2021/07/21 11:29:27;;;;;;;6.47;5.57;;;;;;;21.45;59.70;102348.66;3575393;40;20249;-79